Terminal Aerodrome Forecast
Issued by NWS

Home | Current Version | Previous Version | Text Only | Print | Product List | Glossary On
Versions: 1 2 3 4 5 6 7 8 9 10 11 12 13 14 15 16 17 18 19 20 21
800
FTUS41 KPBZ 111728
TAFBVI
TAF
KBVI 111728Z 1118/1218 27010G20KT P6SM -SHSN BKN035
     FM120000 26008KT P6SM SCT050
     FM120500 VRB02KT P6SM SCT250=

USA.gov is the U.S. government's official web portal to all federal, state and local government web resources and services.